Milton, North Dakota
Current Conditions -  °F | °C
As of 11:55 AM on Sunday 25 Jan 2015 (Local Time) from KD55 Reporting Station
Overcast Overcast  
Wind Chill:   Ceiling: 800
Heat Index: 19°   Visibility: 10mi
Dew Point: 14°   Wind: 10mph
Humidity: 80%   Direction: 250°WSW
Pressure: 29.98"   Gusts: NA
Location:  48.63°N, 98.04°W
Report Text: KD55 251755Z AUTO 25009KT 10SM OVC008 M07/M10 A2998 RMK AO2
Loading
Personal Weather Stations






























Interactive Weather Map New forecast layout! Learn more

10-Day Weather Forecast

Advertisements
Track Severe Weather on mobile